< Typhoon 195802 1958 Season Typhoon 195804 >
Typhoon 195803 (PHYLLIS)
General InformationTrack Information on Google Maps || Disaster Info.ResourceGoogle EarthGE AnimationAtom FeedGeoJSON
Detalied Best Track (Time Zone = UTC)
Year Month Day Hour Lat. Long. Pressure (hPa) Wind (kt) Class Image Chart
1958 5 25 00 5.3 151.5 1005 0 2 -- Chart
1958 5 25 06 6.5 151.7 975 0 9 -- Chart
1958 5 25 12 6.7 150.8 965 0 9 -- Chart
1958 5 25 18 6.8 150.2 965 0 9 -- Chart
1958 5 26 00 6.8 149.7 950 0 9 -- Chart
1958 5 26 06 6.9 148.9 960 0 9 -- Chart
1958 5 26 12 7.2 147.9 965 0 9 -- Chart
1958 5 26 18 7.4 146.9 970 0 9 -- Chart
1958 5 27 00 7.6 146.0 965 0 9 -- Chart
1958 5 27 06 8.3 145.3 965 0 9 -- Chart
1958 5 27 12 8.9 144.6 955 0 9 -- Chart
1958 5 27 18 9.4 144.0 950 0 9 -- Chart
1958 5 28 00 10.4 143.4 945 0 9 -- Chart
1958 5 28 06 11.0 143.0 940 0 9 -- Chart
1958 5 28 12 12.0 142.3 940 0 9 -- Chart
1958 5 28 18 13.0 141.4 940 0 9 -- Chart
1958 5 29 00 13.6 141.2 940 0 9 -- Chart
1958 5 29 06 14.1 140.9 965 0 9 -- Chart
1958 5 29 12 14.6 140.9 965 0 9 -- Chart
1958 5 29 18 15.0 140.9 965 0 9 -- Chart
1958 5 30 00 15.2 141.2 970 0 9 -- Chart
1958 5 30 06 15.9 141.7 970 0 9 -- Chart
1958 5 30 12 16.6 142.3 970 0 9 -- Chart
1958 5 30 18 17.6 143.2 975 0 9 -- Chart
1958 5 31 00 18.9 143.9 975 0 9 -- Chart
1958 5 31 06 20.8 144.5 970 0 9 -- Chart
1958 5 31 12 22.7 144.1 980 0 9 -- Chart
1958 5 31 18 24.5 143.6 980 0 9 -- Chart
1958 6 1 00 27.7 143.8 980 0 9 -- Chart
1958 6 1 06 29.0 143.0 975 0 9 -- Chart
1958 6 1 12 29.4 143.4 975 0 9 -- Chart
1958 6 1 18 29.7 144.3 975 0 9 -- Chart
1958 6 2 00 30.2 145.5 980 0 9 -- Chart
1958 6 2 06 30.7 147.0 990 0 9 -- Chart
1958 6 2 12 31.0 149.5 995 0 9 -- Chart
1958 6 2 18 31.5 150.5 1000 0 6 -- Chart
1958 6 3 00 32.2 151.2 1004 0 6 -- Chart
1958 6 3 06 33.6 151.3 1004 0 6 -- Chart
1958 6 3 12 35.0 151.4 1006 0 6 -- Chart
1958 6 3 18 36.5 151.3 1006 0 6 -- Chart
1958 6 4 00 38.0 151.0 1008 0 6 -- Chart
1958 6 4 06 39.5 150.0 1000 0 6 -- Chart
1958 6 4 12 42.0 150.0 1000 0 6 -- Chart
1958 6 4 18 44.0 151.0 1000 0 6 -- Chart
1958 6 5 00 46.0 151.0 1000 0 6 -- Chart
1958 6 5 06 48.0 152.0 1002 0 6 -- Chart
1958 6 5 12 50.0 151.0 1006 0 6 -- Chart
1958 6 5 18 52.0 151.0 1004 0 6 -- Chart
1958 6 6 00 53.0 148.6 1002 0 6 -- Chart
1958 6 6 06 52.0 148.0 1004 0 6 -- Chart
1958 6 6 12 52.0 146.0 1004 0 6 -- Chart
Japan Meteorological Agency Best Track Data | Correction Date : 1989-06-01
< Typhoon 195802 1958 Season Typhoon 195804 >

Help